Time;durP1;ratioP1;P1;durP2;ratioP2;P2;SDS_P1;SDS_P2;PMS_P1;PMS_P2;Temp;Humidity;BMP_temperature;BMP_pressure;BME280_temperature;BME280_humidity;BME280_pressure;Samples;Min_cycle;Max_cycle;Signal;HPM_P1;HPM_P2
2021/09/03 00:00:52;;;;;;;1.58;1.30;;;10.90;77.10;;;;;;4993794;28;20054;-88
2021/09/03 00:03:18;;;;;;;1.58;0.95;;;10.80;77.30;;;;;;4995096;28;20085;-87
2021/09/03 00:05:44;;;;;;;2.17;1.13;;;10.80;77.50;;;;;;4993660;28;20026;-88
2021/09/03 00:08:09;;;;;;;1.65;1.13;;;10.70;78.00;;;;;;4977277;28;20049;-89
2021/09/03 00:10:35;;;;;;;2.45;1.20;;;10.60;78.40;;;;;;4977482;28;20065;-90
2021/09/03 00:13:01;;;;;;;1.65;1.02;;;10.60;79.10;;;;;;4994910;28;20033;-89
2021/09/03 00:15:27;;;;;;;1.02;0.90;;;10.50;79.50;;;;;;4997102;28;20041;-86
2021/09/03 00:17:52;;;;;;;1.20;1.10;;;10.50;79.70;;;;;;5001628;28;20079;-87
2021/09/03 00:20:19;;;;;;;2.15;1.05;;;10.40;80.50;;;;;;4979808;28;20504;-88
2021/09/03 00:22:45;;;;;;;1.58;1.25;;;10.40;80.80;;;;;;4978911;28;20121;-89
2021/09/03 00:25:11;;;;;;;1.88;1.17;;;10.40;80.70;;;;;;4994038;28;20448;-88
2021/09/03 00:27:38;;;;;;;2.58;1.13;;;10.40;81.20;;;;;;4993307;28;20027;-88
2021/09/03 00:30:05;;;;;;;3.55;1.20;;;10.30;81.10;;;;;;4994973;28;20037;-88
2021/09/03 00:32:31;;;;;;;3.15;1.02;;;10.30;82.20;;;;;;4977521;28;20096;-89
2021/09/03 00:34:57;;;;;;;1.58;1.25;;;10.30;82.50;;;;;;4995649;28;20027;-88
2021/09/03 00:37:23;;;;;;;2.03;1.30;;;10.20;82.50;;;;;;4979333;28;20041;-89
2021/09/03 00:39:48;;;;;;;1.50;1.27;;;10.20;82.70;;;;;;4977863;28;20034;-89
2021/09/03 00:42:15;;;;;;;1.92;1.05;;;10.20;82.40;;;;;;4985871;28;20046;-87
2021/09/03 00:44:41;;;;;;;2.05;1.25;;;10.10;82.50;;;;;;5011715;28;20029;-88
2021/09/03 00:47:07;;;;;;;1.63;1.17;;;10.10;82.80;;;;;;4995937;28;20393;-89
2021/09/03 00:49:33;;;;;;;1.98;1.35;;;10.10;83.50;;;;;;5000954;28;20045;-90
2021/09/03 00:52:01;;;;;;;2.47;1.42;;;10.00;83.60;;;;;;4977380;28;20022;-89
2021/09/03 00:54:27;;;;;;;3.83;1.50;;;10.00;83.70;;;;;;4997773;28;20054;-89
2021/09/03 00:56:53;;;;;;;2.05;1.30;;;10.00;84.30;;;;;;4998728;28;20413;-89
2021/09/03 00:59:18;;;;;;;1.90;1.25;;;9.90;83.70;;;;;;4998742;28;20033;-89
2021/09/03 01:01:44;;;;;;;2.80;1.27;;;9.90;84.10;;;;;;4980568;28;20581;-90
2021/09/03 01:04:10;;;;;;;1.90;1.02;;;9.90;83.70;;;;;;4999028;28;20471;-88
2021/09/03 01:06:36;;;;;;;1.48;1.05;;;9.80;83.50;;;;;;4980820;28;20450;-88
2021/09/03 01:09:01;;;;;;;1.48;1.10;;;9.80;84.20;;;;;;4964242;28;20133;-89
2021/09/03 01:11:28;;;;;;;1.67;1.30;;;9.80;84.80;;;;;;4998666;28;20045;-88
2021/09/03 01:13:54;;;;;;;1.95;1.20;;;9.70;85.20;;;;;;4998008;28;20023;-89
2021/09/03 01:16:19;;;;;;;2.38;1.38;;;9.70;84.60;;;;;;4980325;28;20026;-88
2021/09/03 01:18:45;;;;;;;2.17;1.30;;;9.70;85.40;;;;;;4979572;28;20092;-88
2021/09/03 01:21:11;;;;;;;2.55;1.40;;;9.60;85.20;;;;;;4997901;28;20022;-88
2021/09/03 01:23:36;;;;;;;2.78;1.38;;;9.60;85.60;;;;;;4996522;28;20034;-89
2021/09/03 01:26:03;;;;;;;2.58;1.33;;;9.50;86.00;;;;;;4997921;28;20373;-88
2021/09/03 01:28:29;;;;;;;2.35;1.30;;;9.50;86.30;;;;;;4980567;28;20125;-88
2021/09/03 01:30:55;;;;;;;2.88;1.40;;;9.50;86.70;;;;;;4996915;28;20050;-88
2021/09/03 01:33:20;;;;;;;1.40;1.10;;;9.50;86.70;;;;;;4996703;28;20026;-88
2021/09/03 01:35:46;;;;;;;1.27;0.95;;;9.50;86.20;;;;;;4997751;28;20522;-87
2021/09/03 01:38:12;;;;;;;1.58;1.40;;;9.50;85.90;;;;;;4998057;28;20030;-88
2021/09/03 01:40:37;;;;;;;3.17;1.83;;;9.50;86.60;;;;;;4998220;28;20030;-88
2021/09/03 01:43:03;;;;;;;1.83;1.45;;;9.40;86.60;;;;;;4997390;28;20077;-88
2021/09/03 01:45:29;;;;;;;1.40;1.30;;;9.40;87.20;;;;;;4997842;28;20387;-88
2021/09/03 01:47:55;;;;;;;3.95;1.60;;;9.40;87.20;;;;;;5002361;28;20115;-84
2021/09/03 01:50:21;;;;;;;2.20;1.38;;;9.40;87.70;;;;;;5015756;28;20049;-85
2021/09/03 01:52:46;;;;;;;1.85;1.30;;;9.40;87.20;;;;;;5017010;28;20037;-86
2021/09/03 01:55:12;;;;;;;1.83;1.42;;;9.40;87.40;;;;;;5011114;28;20046;-89
2021/09/03 01:57:38;;;;;;;2.10;1.20;;;9.40;88.20;;;;;;4997852;28;20488;-90
2021/09/03 02:00:05;;;;;;;1.75;1.30;;;9.40;87.60;;;;;;4997766;28;20030;-89
2021/09/03 02:02:30;;;;;;;2.00;1.45;;;9.40;87.60;;;;;;4980452;28;20030;-89
2021/09/03 02:04:56;;;;;;;2.03;1.45;;;9.30;87.50;;;;;;4996677;28;20098;-88
2021/09/03 02:07:22;;;;;;;2.05;1.40;;;9.30;88.10;;;;;;4995298;28;20034;-88
2021/09/03 02:09:47;;;;;;;2.83;1.73;;;9.30;87.60;;;;;;4996948;28;20053;-88
2021/09/03 02:12:13;;;;;;;2.13;1.70;;;9.30;87.30;;;;;;4995344;28;20105;-89
2021/09/03 02:14:43;;;;;;;3.13;1.80;;;9.30;87.30;;;;;;4997362;28;20034;-88
2021/09/03 02:17:10;;;;;;;1.77;1.57;;;9.20;87.50;;;;;;4996948;28;20037;-89
2021/09/03 02:19:36;;;;;;;2.88;1.75;;;9.20;87.60;;;;;;4996520;28;20233;-89
2021/09/03 02:22:02;;;;;;;2.15;1.70;;;9.20;87.40;;;;;;4979491;28;20073;-88
2021/09/03 02:24:29;;;;;;;2.72;1.40;;;9.10;87.50;;;;;;4996878;28;20022;-89
2021/09/03 02:26:55;;;;;;;2.22;1.73;;;9.10;87.60;;;;;;4997914;28;20031;-89
2021/09/03 02:29:21;;;;;;;2.03;1.48;;;9.10;87.60;;;;;;4997017;28;20070;-90
2021/09/03 02:31:47;;;;;;;2.38;1.50;;;9.10;87.70;;;;;;4996828;28;20042;-92
2021/09/03 02:34:13;;;;;;;3.22;1.83;;;9.10;88.20;;;;;;4980416;28;20026;-90
2021/09/03 02:36:38;;;;;;;2.85;1.73;;;9.10;88.80;;;;;;4997091;28;20026;-90
2021/09/03 02:39:05;;;;;;;2.65;1.55;;;9.10;88.60;;;;;;4980263;28;20037;-88
2021/09/03 02:41:31;;;;;;;2.90;1.85;;;9.10;89.40;;;;;;4995583;28;20026;-89
2021/09/03 02:43:57;;;;;;;2.78;1.75;;;9.10;89.30;;;;;;4996491;28;20440;-89
2021/09/03 02:46:22;;;;;;;2.60;1.25;;;9.10;88.90;;;;;;4978769;28;20121;-89
2021/09/03 02:48:48;;;;;;;2.60;1.85;;;9.10;88.70;;;;;;4994578;28;20038;-88
2021/09/03 02:51:14;;;;;;;3.00;2.00;;;9.10;88.70;;;;;;4995620;28;20023;-88
2021/09/03 02:53:40;;;;;;;1.80;1.52;;;9.00;88.60;;;;;;4996233;28;20033;-88
2021/09/03 02:56:06;;;;;;;3.30;1.67;;;9.00;88.50;;;;;;4979609;28;20068;-89
2021/09/03 02:58:31;;;;;;;3.20;1.80;;;9.00;88.60;;;;;;4978814;28;20034;-88
2021/09/03 03:00:57;;;;;;;3.63;1.80;;;9.00;88.80;;;;;;4996012;28;20030;-88
2021/09/03 03:03:23;;;;;;;2.60;1.85;;;9.00;89.20;;;;;;4995906;28;20470;-88
2021/09/03 03:05:49;;;;;;;3.17;1.88;;;9.00;89.00;;;;;;4979496;28;20358;-88
2021/09/03 03:08:14;;;;;;;3.92;1.75;;;9.00;89.00;;;;;;4978898;28;20041;-88
2021/09/03 03:10:40;;;;;;;3.38;2.10;;;9.00;88.50;;;;;;4994810;28;20073;-89
2021/09/03 03:13:24;;;;;;;2.95;1.98;;;9.00;88.80;;;;;;4996242;28;20026;-88
2021/09/03 03:15:50;;;;;;;5.38;2.47;;;9.00;89.10;;;;;;4994399;28;20027;-89
2021/09/03 03:18:17;;;;;;;8.65;3.65;;;9.00;89.20;;;;;;4978954;28;20038;-88
2021/09/03 03:20:44;;;;;;;7.30;3.47;;;9.00;90.00;;;;;;4978894;28;20529;-87
2021/09/03 03:23:10;;;;;;;8.25;3.80;;;9.00;89.50;;;;;;4978430;28;20134;-88
2021/09/03 03:25:36;;;;;;;6.30;2.90;;;9.00;89.50;;;;;;4995663;28;20057;-88
2021/09/03 03:28:02;;;;;;;7.25;3.70;;;9.00;90.20;;;;;;4994705;28;20034;-88
2021/09/03 03:30:27;;;;;;;4.13;2.70;;;9.00;90.00;;;;;;4978582;28;20112;-88
2021/09/03 03:32:53;;;;;;;4.80;2.70;;;9.10;89.70;;;;;;4995302;28;20026;-88
2021/09/03 03:35:19;;;;;;;4.05;2.50;;;9.00;90.10;;;;;;4995750;28;20030;-90
2021/09/03 03:37:44;;;;;;;4.68;2.47;;;9.10;90.40;;;;;;4995957;28;20049;-91
2021/09/03 03:40:12;;;;;;;3.90;2.45;;;9.10;89.90;;;;;;4988282;28;20023;-86
2021/09/03 03:42:38;;;;;;;3.85;2.17;;;9.10;90.00;;;;;;4993253;28;20097;-84
2021/09/03 03:45:04;;;;;;;3.42;2.05;;;9.10;89.50;;;;;;4977423;28;20030;-86
2021/09/03 03:47:30;;;;;;;3.53;2.20;;;9.10;89.10;;;;;;4974523;28;20026;-86
2021/09/03 03:49:55;;;;;;;3.67;2.00;;;9.10;89.10;;;;;;4973803;28;20449;-87
2021/09/03 03:52:21;;;;;;;5.20;2.00;;;9.20;89.20;;;;;;4975343;28;20078;-87
2021/09/03 03:54:47;;;;;;;3.10;2.20;;;9.20;89.20;;;;;;4974084;28;20389;-85
2021/09/03 03:57:12;;;;;;;3.38;2.13;;;9.20;89.00;;;;;;4958201;28;20046;-85
2021/09/03 03:59:38;;;;;;;2.88;2.00;;;9.20;89.00;;;;;;4976941;28;20031;-87
2021/09/03 04:02:04;;;;;;;2.85;1.65;;;9.20;89.30;;;;;;4975229;28;20480;-86
2021/09/03 04:04:29;;;;;;;4.90;2.65;;;9.30;89.40;;;;;;4975296;28;20035;-87
2021/09/03 04:06:55;;;;;;;4.10;2.33;;;9.30;89.50;;;;;;4975243;28;20026;-86
2021/09/03 04:09:22;;;;;;;6.53;2.78;;;9.30;89.40;;;;;;4974124;28;20077;-86
2021/09/03 04:11:47;;;;;;;4.07;2.60;;;9.40;89.30;;;;;;4974301;28;20058;-87
2021/09/03 04:14:15;;;;;;;3.70;2.50;;;9.50;89.60;;;;;;4973906;28;20465;-87
2021/09/03 04:16:46;;;;;;;4.88;2.35;;;9.50;88.90;;;;;;4974034;28;20031;-85
2021/09/03 04:19:12;;;;;;;4.60;2.43;;;9.60;88.60;;;;;;4976559;28;20081;-86
2021/09/03 04:21:38;;;;;;;2.88;2.20;;;9.60;88.40;;;;;;4980534;28;20281;-84
2021/09/03 04:24:04;;;;;;;3.75;2.00;;;9.60;88.00;;;;;;4967183;28;20031;-84
2021/09/03 04:26:30;;;;;;;4.10;2.00;;;9.70;88.00;;;;;;4966020;28;20027;-87
2021/09/03 04:28:56;;;;;;;4.07;2.50;;;9.70;87.90;;;;;;4978702;28;20093;-87
2021/09/03 04:31:24;;;;;;;2.97;1.80;;;9.80;87.60;;;;;;4978877;28;20031;-88
2021/09/03 04:33:51;;;;;;;4.85;2.60;;;9.80;87.30;;;;;;4980739;28;20023;-89
2021/09/03 04:36:17;;;;;;;3.95;2.45;;;9.80;87.10;;;;;;4962470;28;20023;-89
2021/09/03 04:38:43;;;;;;;3.97;2.40;;;9.90;86.90;;;;;;4994594;28;20048;-87
2021/09/03 04:41:09;;;;;;;4.15;2.40;;;10.00;86.80;;;;;;4978250;28;20046;-88
2021/09/03 04:43:35;;;;;;;3.40;2.15;;;10.00;86.70;;;;;;4996703;28;20093;-89
2021/09/03 04:46:01;;;;;;;3.28;2.30;;;10.00;86.50;;;;;;4979099;28;20026;-86
2021/09/03 04:48:28;;;;;;;2.40;1.77;;;10.10;86.50;;;;;;4997146;28;20038;-85
2021/09/03 04:50:54;;;;;;;3.10;2.10;;;10.10;86.40;;;;;;4993439;28;20092;-85
2021/09/03 04:53:20;;;;;;;2.72;1.90;;;10.20;86.20;;;;;;4995467;28;20389;-86
2021/09/03 04:55:45;;;;;;;3.92;1.73;;;10.30;86.00;;;;;;4994285;28;20034;-86
2021/09/03 04:58:11;;;;;;;2.90;1.90;;;10.30;85.70;;;;;;4994464;28;20437;-86
2021/09/03 05:00:37;;;;;;;3.65;1.83;;;10.40;85.40;;;;;;4997025;28;20034;-86
2021/09/03 05:03:03;;;;;;;2.50;1.77;;;10.50;85.30;;;;;;4996257;28;20362;-86
2021/09/03 05:05:28;;;;;;;2.95;1.27;;;10.50;85.00;;;;;;4995760;28;20069;-87
2021/09/03 05:07:54;;;;;;;3.50;1.60;;;10.70;85.10;;;;;;4998131;28;20389;-87
2021/09/03 05:10:20;;;;;;;2.00;1.80;;;10.70;84.50;;;;;;4980618;28;20030;-85
2021/09/03 05:12:46;;;;;;;2.35;1.58;;;10.80;84.30;;;;;;4980567;28;20061;-87
2021/09/03 05:15:14;;;;;;;2.92;1.92;;;10.80;83.90;;;;;;4997522;28;20053;-87
2021/09/03 05:17:43;;;;;;;2.00;1.35;;;10.90;84.00;;;;;;4980097;28;20032;-86
2021/09/03 05:20:09;;;;;;;4.68;2.40;;;11.00;83.60;;;;;;4997628;28;20033;-86
2021/09/03 05:22:35;;;;;;;3.70;2.40;;;11.10;83.30;;;;;;4996083;28;20026;-88
2021/09/03 05:25:02;;;;;;;3.42;1.70;;;11.20;83.20;;;;;;4996574;28;20049;-86
2021/09/03 05:27:27;;;;;;;5.93;4.00;;;11.20;83.00;;;;;;4997523;28;20385;-85
2021/09/03 05:29:53;;;;;;;4.72;3.00;;;11.30;82.60;;;;;;4997425;28;20045;-85
2021/09/03 05:32:19;;;;;;;3.75;2.67;;;11.40;82.50;;;;;;4997482;28;20030;-85
2021/09/03 05:34:44;;;;;;;3.17;2.30;;;11.50;82.30;;;;;;4981203;28;20029;-85
2021/09/03 05:37:10;;;;;;;4.88;2.60;;;11.60;81.90;;;;;;4997241;28;20130;-84
2021/09/03 05:39:36;;;;;;;4.38;2.10;;;11.70;81.70;;;;;;4981055;28;20034;-85
2021/09/03 05:42:02;;;;;;;4.22;2.40;;;11.70;81.50;;;;;;4980868;28;20037;-84
2021/09/03 05:44:27;;;;;;;3.00;1.88;;;11.80;81.20;;;;;;4998357;28;20483;-85
2021/09/03 05:46:53;;;;;;;2.90;1.70;;;11.90;80.90;;;;;;5009561;28;20105;-86
2021/09/03 05:49:19;;;;;;;3.75;2.35;;;12.00;80.70;;;;;;5012014;28;20034;-88
2021/09/03 05:51:44;;;;;;;3.97;2.20;;;12.10;80.40;;;;;;5013364;28;20033;-87
2021/09/03 05:54:10;;;;;;;79.93;48.33;;;12.20;80.10;;;;;;5000712;28;20034;-88
2021/09/03 05:56:37;;;;;;;61.22;37.30;;;12.30;79.90;;;;;;4998132;28;20472;-88
2021/09/03 05:59:03;;;;;;;29.27;18.20;;;12.40;79.60;;;;;;4997926;28;20030;-86
2021/09/03 06:01:29;;;;;;;18.92;11.95;;;12.50;78.90;;;;;;4981599;28;20037;-86
2021/09/03 06:03:58;;;;;;;11.13;6.93;;;12.60;78.50;;;;;;4999549;28;20039;-86
2021/09/03 06:06:24;;;;;;;7.93;4.95;;;12.70;77.80;;;;;;4997731;28;20485;-84
2021/09/03 06:08:52;;;;;;;6.65;3.92;;;12.80;77.50;;;;;;4998645;28;20099;-84
2021/09/03 06:11:24;;;;;;;4.43;2.78;;;12.90;77.10;;;;;;4997792;28;20037;-87
2021/09/03 06:13:50;;;;;;;3.33;1.98;;;12.90;76.70;;;;;;4997473;28;20027;-87
2021/09/03 06:16:16;;;;;;;5.05;1.77;;;13.00;76.80;;;;;;4981273;28;20142;-85
2021/09/03 06:18:42;;;;;;;1.50;1.13;;;13.10;76.30;;;;;;4997339;28;20065;-85
2021/09/03 06:21:07;;;;;;;2.03;1.30;;;13.20;76.20;;;;;;4996960;28;20030;-86
2021/09/03 06:23:33;;;;;;;289.92;171.15;;;13.30;76.10;;;;;;4998036;28;20032;-86
2021/09/03 06:25:59;;;;;;;75.65;43.58;;;13.50;75.60;;;;;;4980617;28;20461;-87
2021/09/03 06:28:24;;;;;;;38.33;23.83;;;13.60;75.10;;;;;;4997976;28;20109;-87
2021/09/03 06:30:50;;;;;;;23.33;14.30;;;13.80;74.40;;;;;;4998193;28;20033;-89
2021/09/03 06:33:16;;;;;;;12.68;7.80;;;13.90;73.70;;;;;;4980670;28;20030;-88
2021/09/03 06:35:45;;;;;;;9.15;4.50;;;14.00;72.90;;;;;;4980732;28;20026;-89
2021/09/03 06:38:15;;;;;;;5.95;3.33;;;14.10;71.80;;;;;;4999183;28;20473;-88
2021/09/03 06:40:41;;;;;;;5.43;2.67;;;14.20;71.80;;;;;;4998828;28;20508;-87
2021/09/03 06:43:07;;;;;;;3.55;2.78;;;14.30;71.60;;;;;;4997128;28;20046;-88
2021/09/03 06:45:33;;;;;;;2.78;1.55;;;14.30;70.90;;;;;;4995492;28;20120;-88
2021/09/03 06:47:58;;;;;;;4.22;2.83;;;14.40;70.70;;;;;;4978266;28;20370;-88
2021/09/03 06:50:24;;;;;;;3.75;2.70;;;14.50;70.40;;;;;;4995207;28;20109;-88
2021/09/03 06:52:50;;;;;;;2.90;1.83;;;14.60;70.70;;;;;;4978160;28;20033;-87
2021/09/03 06:55:16;;;;;;;4.40;1.60;;;14.80;70.40;;;;;;4978409;28;20031;-89
2021/09/03 06:57:42;;;;;;;3.72;1.42;;;14.90;69.30;;;;;;4977272;28;20023;-88
2021/09/03 07:00:09;;;;;;;1.77;1.30;;;15.00;69.00;;;;;;4995983;28;20034;-89
2021/09/03 07:02:36;;;;;;;1.90;1.23;;;15.10;68.50;;;;;;4979102;28;20473;-89
2021/09/03 07:05:02;;;;;;;1.20;1.00;;;15.20;68.40;;;;;;4997096;28;20054;-87
2021/09/03 07:07:27;;;;;;;3.22;1.20;;;15.20;67.30;;;;;;4998264;28;20022;-89
2021/09/03 07:09:54;;;;;;;1.48;0.70;;;15.30;66.70;;;;;;4980644;28;20041;-88
2021/09/03 07:12:20;;;;;;;1.20;0.80;;;15.30;66.90;;;;;;4997711;28;20480;-87
2021/09/03 07:14:46;;;;;;;2.38;0.70;;;15.40;66.30;;;;;;4997208;28;20037;-88
2021/09/03 07:17:11;;;;;;;2.30;0.85;;;15.50;65.50;;;;;;4997044;28;20026;-88
2021/09/03 07:19:37;;;;;;;2.72;1.70;;;15.60;65.50;;;;;;4978495;28;20117;-88
2021/09/03 07:22:04;;;;;;;3.35;2.30;;;15.70;64.90;;;;;;4994202;28;20022;-86
2021/09/03 07:24:30;;;;;;;5.53;2.45;;;15.80;63.80;;;;;;4995455;28;20095;-89
2021/09/03 07:26:57;;;;;;;3.08;2.03;;;15.80;63.20;;;;;;4997504;28;20058;-89
2021/09/03 07:29:22;;;;;;;3.22;2.00;;;15.90;63.30;;;;;;4996910;28;20030;-88
2021/09/03 07:31:48;;;;;;;2.78;2.00;;;16.00;63.20;;;;;;4995265;28;20034;-87
2021/09/03 07:34:14;;;;;;;5.13;2.95;;;16.10;62.90;;;;;;4996883;28;20030;-88
2021/09/03 07:36:40;;;;;;;4.75;2.83;;;16.20;62.90;;;;;;4996425;28;20531;-89
2021/09/03 07:39:05;;;;;;;5.13;2.72;;;16.30;62.90;;;;;;4995437;28;20186;-88
2021/09/03 07:41:31;;;;;;;3.08;1.70;;;16.50;63.00;;;;;;4995414;28;20030;-88
2021/09/03 07:43:57;;;;;;;2.40;1.65;;;16.80;63.70;;;;;;4993757;28;20054;-86
2021/09/03 07:46:23;;;;;;;2.65;1.80;;;17.20;64.40;;;;;;4995049;28;20080;-87
2021/09/03 07:48:49;;;;;;;2.05;1.27;;;17.50;63.00;;;;;;4977582;28;20038;-87
2021/09/03 07:51:15;;;;;;;1.70;1.10;;;17.90;63.40;;;;;;4994402;28;20527;-87
2021/09/03 07:53:41;;;;;;;1.83;1.17;;;18.30;61.90;;;;;;4995345;28;20034;-88
2021/09/03 07:56:07;;;;;;;1.25;0.77;;;18.60;61.30;;;;;;4995208;28;20408;-87
2021/09/03 07:58:33;;;;;;;2.47;1.25;;;19.00;61.70;;;;;;4995175;28;20030;-87
2021/09/03 08:01:00;;;;;;;2.38;1.40;;;19.40;61.30;;;;;;4994836;28;20026;-87
2021/09/03 08:03:26;;;;;;;4.07;2.03;;;19.80;60.20;;;;;;4992642;28;20035;-88
2021/09/03 08:05:52;;;;;;;2.60;1.77;;;20.10;58.90;;;;;;4994877;28;20102;-88
2021/09/03 08:08:17;;;;;;;1.50;1.30;;;20.30;56.90;;;;;;4994976;28;20042;-85
2021/09/03 08:10:43;;;;;;;1.45;1.00;;;20.60;57.20;;;;;;4994440;28;20025;-87
2021/09/03 08:13:09;;;;;;;2.13;0.93;;;21.00;57.60;;;;;;4994536;28;20033;-86
2021/09/03 08:15:36;;;;;;;1.27;0.80;;;21.10;55.40;;;;;;4993811;28;20377;-86
2021/09/03 08:18:03;;;;;;;1.10;0.80;;;21.20;53.90;;;;;;4994355;28;20050;-86
2021/09/03 08:20:29;;;;;;;0.98;0.65;;;21.10;53.10;;;;;;4994828;28;20033;-87
2021/09/03 08:22:55;;;;;;;0.95;0.90;;;21.10;53.40;;;;;;4994566;28;20026;-88
2021/09/03 08:25:22;;;;;;;2.83;1.30;;;21.40;52.40;;;;;;4993053;28;20465;-88
2021/09/03 08:27:49;;;;;;;3.35;1.70;;;21.70;51.80;;;;;;4994532;28;20037;-88
2021/09/03 08:30:16;;;;;;;2.95;1.90;;;21.90;51.60;;;;;;4994211;28;20396;-87
2021/09/03 08:32:42;;;;;;;2.92;1.20;;;22.10;51.70;;;;;;4994679;28;20019;-87
2021/09/03 08:35:08;;;;;;;1.38;1.20;;;22.40;51.30;;;;;;4994481;28;20100;-87
2021/09/03 08:37:34;;;;;;;1.48;1.02;;;22.80;50.20;;;;;;4994205;28;20054;-87
2021/09/03 08:40:00;;;;;;;0.80;0.70;;;23.10;50.10;;;;;;4994187;28;20022;-87
2021/09/03 08:42:26;;;;;;;1.05;0.80;;;23.40;49.80;;;;;;4992716;28;20055;-87
2021/09/03 08:44:52;;;;;;;2.05;1.00;;;23.60;49.30;;;;;;4994168;28;20030;-87
2021/09/03 08:47:20;;;;;;;2.92;0.70;;;23.60;47.90;;;;;;4993965;28;20030;-87
2021/09/03 08:49:46;;;;;;;1.00;0.65;;;23.40;47.10;;;;;;4994123;28;20515;-87
2021/09/03 08:52:12;;;;;;;0.60;0.50;;;23.10;46.90;;;;;;4977028;28;20031;-87
2021/09/03 08:54:38;;;;;;;0.63;0.50;;;22.80;46.10;;;;;;4994373;28;20026;-85
2021/09/03 08:57:07;;;;;;;0.65;0.57;;;22.60;46.70;;;;;;4976629;28;20145;-87
2021/09/03 08:59:32;;;;;;;1.98;1.20;;;22.40;46.80;;;;;;4993907;28;20077;-87
2021/09/03 09:02:15;;;;;;;2.40;1.20;;;22.20;46.20;;;;;;4993328;28;20026;-86
2021/09/03 09:04:43;;;;;;;4.43;1.90;;;22.20;46.00;;;;;;4976696;28;20061;-86
2021/09/03 09:07:09;;;;;;;2.83;1.38;;;22.30;47.50;;;;;;4994244;28;20025;-86
2021/09/03 09:09:41;;;;;;;3.05;1.80;;;22.40;47.00;;;;;;4976496;28;20093;-87
2021/09/03 09:12:12;;;;;;;2.28;1.00;;;22.40;46.00;;;;;;4992805;28;20124;-87
2021/09/03 09:15:07;;;;;;;1.48;0.75;;;22.50;46.20;;;;;;4994531;28;20033;-87
2021/09/03 09:17:43;;;;;;;2.50;2.03;;;22.90;45.50;;;;;;4997931;28;20022;-87
2021/09/03 09:20:11;;;;;;;3.38;1.90;;;23.20;44.20;;;;;;4996269;28;20030;-88
2021/09/03 09:23:07;;;;;;;2.05;1.23;;;23.30;44.00;;;;;;4997585;28;20026;-87
2021/09/03 09:25:36;;;;;;;1.58;1.20;;;23.30;42.70;;;;;;4975088;28;20035;-87
2021/09/03 09:28:21;;;;;;;1.67;1.00;;;23.30;43.60;;;;;;4979803;28;20030;-87
2021/09/03 09:30:49;;;;;;;1.90;0.90;;;23.50;42.70;;;;;;4980105;28;20030;-88
2021/09/03 09:33:20;;;;;;;2.67;0.77;;;23.90;43.20;;;;;;4997219;28;20081;-87
2021/09/03 09:35:47;;;;;;;0.70;0.68;;;24.10;43.40;;;;;;4997799;28;20054;-87
2021/09/03 09:38:14;;;;;;;2.42;1.40;;;24.50;43.40;;;;;;4997283;28;20473;-85
2021/09/03 09:40:48;;;;;;;1.85;1.48;;;25.00;42.50;;;;;;4997243;28;20081;-87
2021/09/03 09:43:30;;;;;;;2.15;1.50;;;25.40;41.20;;;;;;4997694;28;20373;-85
2021/09/03 09:46:15;;;;;;;1.10;1.00;;;25.50;40.70;;;;;;4997228;28;20480;-86
2021/09/03 09:48:53;;;;;;;1.15;0.80;;;25.60;40.50;;;;;;4997110;28;20041;-87
2021/09/03 09:51:25;;;;;;;1.10;0.80;;;25.90;39.60;;;;;;4979518;28;20117;-87
2021/09/03 09:53:53;;;;;;;0.93;0.63;;;26.10;40.90;;;;;;4996866;28;20030;-87
2021/09/03 09:56:20;;;;;;;1.40;0.90;;;25.80;40.30;;;;;;4979966;28;20429;-88
2021/09/03 09:58:49;;;;;;;1.58;0.70;;;25.30;39.80;;;;;;4997133;28;20113;-87
2021/09/03 10:01:16;;;;;;;0.90;0.60;;;25.10;40.00;;;;;;4979550;28;20515;-88
2021/09/03 10:03:42;;;;;;;5.05;0.68;;;25.20;40.40;;;;;;4997158;28;20057;-87
2021/09/03 10:06:08;;;;;;;2.50;0.80;;;25.60;39.40;;;;;;4979802;28;20033;-86
2021/09/03 10:08:35;;;;;;;2.03;0.60;;;25.90;39.40;;;;;;4997432;28;20035;-86
2021/09/03 10:11:02;;;;;;;1.67;0.50;;;26.10;39.60;;;;;;4995697;28;20054;-87
2021/09/03 10:13:27;;;;;;;1.42;0.60;;;26.40;38.90;;;;;;4997723;28;20027;-85
2021/09/03 10:15:53;;;;;;;0.68;0.45;;;26.60;39.20;;;;;;4999043;28;20022;-84
2021/09/03 10:18:19;;;;;;;2.35;0.50;;;27.00;39.70;;;;;;4999667;28;20366;-83
2021/09/03 10:20:45;;;;;;;1.83;0.57;;;27.50;39.30;;;;;;4998955;28;20030;-84
2021/09/03 10:23:10;;;;;;;0.90;0.60;;;27.60;38.60;;;;;;4980320;28;20030;-87
2021/09/03 10:25:52;;;;;;;1.52;0.73;;;27.50;38.10;;;;;;4995555;28;20033;-86
2021/09/03 10:28:26;;;;;;;0.52;0.50;;;27.20;36.60;;;;;;4996404;28;20048;-87
2021/09/03 10:31:06;;;;;;;1.23;0.57;;;26.90;37.70;;;;;;4979409;28;20038;-87
2021/09/03 10:33:36;;;;;;;0.47;0.32;;;26.50;36.20;;;;;;4978991;28;20030;-87
2021/09/03 10:36:03;;;;;;;1.00;0.60;;;25.70;37.40;;;;;;4996888;28;20030;-87
2021/09/03 10:38:31;;;;;;;1.13;0.65;;;25.20;38.80;;;;;;4997613;28;20030;-86
2021/09/03 10:40:58;;;;;;;0.60;0.45;;;25.40;39.10;;;;;;4983329;28;20049;-86
2021/09/03 10:43:46;;;;;;;3.20;0.50;;;25.20;38.10;;;;;;5003563;28;20050;-86
2021/09/03 10:46:15;;;;;;;0.43;0.40;;;24.80;38.60;;;;;;5004615;28;20030;-85
2021/09/03 10:48:49;;;;;;;0.95;0.70;;;24.70;39.60;;;;;;4981829;28;20477;-87
2021/09/03 10:51:36;;;;;;;1.30;0.50;;;25.00;38.40;;;;;;4995137;28;20027;-87
2021/09/03 10:54:17;;;;;;;0.75;0.65;;;25.60;37.80;;;;;;4995105;28;20034;-87
2021/09/03 10:56:55;;;;;;;1.40;0.52;;;26.20;37.40;;;;;;4979334;28;20049;-87
2021/09/03 10:59:20;;;;;;;1.15;0.70;;;26.70;36.90;;;;;;4978568;28;20037;-88
2021/09/03 11:01:52;;;;;;;0.70;0.60;;;27.30;37.70;;;;;;4995929;28;20026;-87
2021/09/03 11:04:21;;;;;;;0.93;0.40;;;27.70;36.30;;;;;;4978299;28;20069;-88
2021/09/03 11:06:50;;;;;;;2.20;1.17;;;27.70;37.20;;;;;;4994521;28;20026;-88
2021/09/03 11:09:16;;;;;;;2.28;0.93;;;27.70;35.50;;;;;;4995786;28;20041;-87
2021/09/03 11:11:46;;;;;;;2.70;0.88;;;27.70;35.60;;;;;;4994421;28;20058;-87
2021/09/03 11:14:14;;;;;;;3.17;1.13;;;27.70;35.40;;;;;;4978407;28;20372;-87
2021/09/03 11:16:48;;;;;;;2.17;0.80;;;27.70;34.10;;;;;;4995617;28;20053;-87
2021/09/03 11:19:15;;;;;;;0.98;0.80;;;27.50;34.70;;;;;;4994317;28;20037;-88
2021/09/03 11:21:42;;;;;;;1.15;0.75;;;27.30;34.30;;;;;;4995149;28;20531;-87
2021/09/03 11:24:10;;;;;;;1.42;1.02;;;27.30;33.90;;;;;;4978100;28;20076;-87
2021/09/03 11:26:38;;;;;;;1.85;1.40;;;27.20;34.40;;;;;;4995287;28;20098;-88
2021/09/03 11:29:06;;;;;;;2.78;1.98;;;27.00;34.20;;;;;;4993992;28;20041;-87
2021/09/03 11:31:35;;;;;;;2.17;1.40;;;26.60;34.30;;;;;;4995217;28;20034;-88
2021/09/03 11:34:06;;;;;;;1.70;0.90;;;26.40;34.90;;;;;;4977763;28;20106;-87
2021/09/03 11:36:52;;;;;;;1.63;1.10;;;26.30;35.60;;;;;;4978671;28;20032;-88
2021/09/03 11:39:18;;;;;;;3.40;1.13;;;26.70;35.90;;;;;;4995416;28;20458;-87
2021/09/03 11:41:48;;;;;;;1.55;0.70;;;27.10;35.10;;;;;;4978642;28;20037;-87
2021/09/03 11:44:14;;;;;;;1.75;0.75;;;27.10;34.80;;;;;;4995516;28;20050;-88
2021/09/03 11:46:39;;;;;;;0.75;0.75;;;27.30;34.40;;;;;;4995121;28;20082;-87
2021/09/03 11:49:05;;;;;;;1.00;0.60;;;27.40;33.80;;;;;;4994944;28;20030;-88
2021/09/03 11:51:32;;;;;;;2.35;0.90;;;27.50;34.30;;;;;;4994628;28;20381;-87
2021/09/03 11:54:02;;;;;;;1.05;0.70;;;27.80;34.80;;;;;;4980586;28;20033;-89
2021/09/03 11:56:27;;;;;;;;;;;28.20;33.60;;;;;;4977550;28;20461;-88
2021/09/03 11:58:53;;;;;;;1.95;0.80;;;28.30;32.80;;;;;;4994933;28;19949;-89
2021/09/03 12:01:22;;;;;;;1.27;0.98;;;28.20;33.40;;;;;;4993610;28;20054;-88
2021/09/03 12:03:50;;;;;;;1.60;1.08;;;28.40;32.80;;;;;;4995285;28;20053;-88
2021/09/03 12:06:18;;;;;;;1.65;0.82;;;28.40;32.50;;;;;;4978696;28;20043;-89
2021/09/03 12:08:45;;;;;;;2.05;0.80;;;28.30;32.50;;;;;;4977056;28;20038;-88
2021/09/03 12:11:20;;;;;;;2.78;0.95;;;28.10;32.90;;;;;;4977203;28;20421;-88
2021/09/03 12:13:55;;;;;;;1.70;0.80;;;27.70;32.90;;;;;;4994673;28;20026;-88
2021/09/03 12:16:26;;;;;;;1.70;0.80;;;27.20;34.20;;;;;;4993834;28;20030;-89
2021/09/03 12:18:56;;;;;;;0.90;0.73;;;26.90;34.00;;;;;;4993581;28;20034;-88
2021/09/03 12:21:26;;;;;;;2.08;0.70;;;26.80;34.60;;;;;;4994567;28;20409;-88
2021/09/03 12:23:58;;;;;;;2.05;0.80;;;27.10;35.30;;;;;;4992622;28;20030;-89
2021/09/03 12:26:36;;;;;;;2.03;1.02;;;27.70;34.50;;;;;;4994508;28;20026;-88
2021/09/03 12:29:07;;;;;;;1.80;0.93;;;27.90;33.70;;;;;;4994664;28;20449;-90
2021/09/03 12:31:33;;;;;;;1.50;1.30;;;27.50;33.80;;;;;;4977187;28;20022;-89
2021/09/03 12:34:06;;;;;;;2.35;1.48;;;27.00;34.30;;;;;;4994867;28;20026;-89
2021/09/03 12:36:34;;;;;;;1.63;0.90;;;26.60;34.80;;;;;;4994599;28;20073;-89
2021/09/03 12:39:03;;;;;;;1.20;0.90;;;26.30;35.60;;;;;;4993469;28;20137;-88
2021/09/03 12:41:34;;;;;;;4.05;1.17;;;26.30;35.40;;;;;;4994638;28;20069;-88
2021/09/03 12:44:06;;;;;;;2.45;1.27;;;26.10;35.70;;;;;;4976213;28;20450;-92
2021/09/03 12:46:36;;;;;;;54.40;39.70;;;26.00;35.30;;;;;;4995029;28;20026;-88
2021/09/03 12:49:10;;;;;;;28.17;22.42;;;25.70;36.10;;;;;;4995049;28;20038;-88
2021/09/03 12:51:38;;;;;;;10.77;8.05;;;26.10;36.50;;;;;;4981429;28;20034;-91